Y87 weather

Empire Airport
Empire, Michigan, United States

Public forecast

Using degrees Fahrenheit for public forecast. Weather courtesy of forecast.io.

METAR (pilot weather report)

Closest report is Frankfort Dow Memorial Field, 12.9 nm (23.8 km) SW. Retrieved 2019/06/20 12:35 UTC (0 seconds ago):

KFKS 201235Z AUTO 04004KT 10SM CLR 17/12 A2972 RMK AO2 T01720116

TAF (pilot weather forecast)

Closest forecast is Cherry Capital Airport, 18.2 nm (33.7 km) E. Retrieved 2019/06/20 12:22 UTC (1 minute ago):

TAF KTVC 201120Z 2012/2112 VRB04KT P6SM SCT090 OVC150 FM201400 04006KT P6SM BKN200 FM201900 03010G18KT P6SM BKN200 FM210000 36006KT P6SM SCT250 FM210200 VRB04KT P6SM SCT250